sensor_id;sensor_type;location;lat;lon;timestamp;temperature;humidity
72883;DHT22;61017;37.812;-122.286;2023-01-30T00:00:41;13.90;70.20
72883;DHT22;61017;37.812;-122.286;2023-01-30T00:02:13;14.00;70.40
72883;DHT22;61017;37.812;-122.286;2023-01-30T00:03:44;14.00;70.40
72883;DHT22;61017;37.812;-122.286;2023-01-30T00:05:16;13.90;70.40
72883;DHT22;61017;37.812;-122.286;2023-01-30T00:06:47;13.90;70.50
72883;DHT22;61017;37.812;-122.286;2023-01-30T00:08:19;13.90;70.60
72883;DHT22;61017;37.812;-122.286;2023-01-30T00:09:51;13.90;70.60
72883;DHT22;61017;37.812;-122.286;2023-01-30T00:11:23;13.90;70.70
72883;DHT22;61017;37.812;-122.286;2023-01-30T00:12:54;13.90;70.80
72883;DHT22;61017;37.812;-122.286;2023-01-30T00:14:26;13.90;71.00
72883;DHT22;61017;37.812;-122.286;2023-01-30T00:15:57;13.90;71.30
72883;DHT22;61017;37.812;-122.286;2023-01-30T00:17:29;13.90;71.50
72883;DHT22;61017;37.812;-122.286;2023-01-30T00:19:01;13.90;71.60
72883;DHT22;61017;37.812;-122.286;2023-01-30T00:20:32;13.90;71.70
72883;DHT22;61017;37.812;-122.286;2023-01-30T00:22:04;13.90;71.90
72883;DHT22;61017;37.812;-122.286;2023-01-30T00:23:36;13.90;72.00
72883;DHT22;61017;37.812;-122.286;2023-01-30T00:25:09;13.90;72.00
72883;DHT22;61017;37.812;-122.286;2023-01-30T00:26:40;13.90;72.20
72883;DHT22;61017;37.812;-122.286;2023-01-30T00:28:12;13.90;72.20
72883;DHT22;61017;37.812;-122.286;2023-01-30T00:29:43;13.90;72.20
72883;DHT22;61017;37.812;-122.286;2023-01-30T00:31:15;13.90;72.20
72883;DHT22;61017;37.812;-122.286;2023-01-30T00:32:46;13.90;72.20
72883;DHT22;61017;37.812;-122.286;2023-01-30T00:34:18;13.90;72.40
72883;DHT22;61017;37.812;-122.286;2023-01-30T00:35:51;13.90;72.40
72883;DHT22;61017;37.812;-122.286;2023-01-30T00:37:23;13.90;72.30
72883;DHT22;61017;37.812;-122.286;2023-01-30T00:38:56;13.90;72.40
72883;DHT22;61017;37.812;-122.286;2023-01-30T00:40:28;13.90;72.60
72883;DHT22;61017;37.812;-122.286;2023-01-30T00:42:00;13.90;72.60
72883;DHT22;61017;37.812;-122.286;2023-01-30T00:43:32;13.90;72.40
72883;DHT22;61017;37.812;-122.286;2023-01-30T00:45:03;13.90;72.50
72883;DHT22;61017;37.812;-122.286;2023-01-30T00:46:35;13.90;72.40
72883;DHT22;61017;37.812;-122.286;2023-01-30T00:48:07;13.90;72.40
72883;DHT22;61017;37.812;-122.286;2023-01-30T00:49:39;13.90;72.30
72883;DHT22;61017;37.812;-122.286;2023-01-30T00:51:10;13.90;72.40
72883;DHT22;61017;37.812;-122.286;2023-01-30T00:52:42;14.00;72.60
72883;DHT22;61017;37.812;-122.286;2023-01-30T00:54:13;14.00;72.70
72883;DHT22;61017;37.812;-122.286;2023-01-30T00:55:45;14.00;72.70
72883;DHT22;61017;37.812;-122.286;2023-01-30T00:57:17;14.00;72.80
72883;DHT22;61017;37.812;-122.286;2023-01-30T00:58:48;14.00;72.90
72883;DHT22;61017;37.812;-122.286;2023-01-30T01:00:21;14.00;72.90
72883;DHT22;61017;37.812;-122.286;2023-01-30T01:01:53;14.00;72.80
72883;DHT22;61017;37.812;-122.286;2023-01-30T01:03:24;13.90;72.30
72883;DHT22;61017;37.812;-122.286;2023-01-30T01:04:56;13.90;72.50
72883;DHT22;61017;37.812;-122.286;2023-01-30T01:06:28;13.90;72.40
72883;DHT22;61017;37.812;-122.286;2023-01-30T01:08:00;13.90;72.40
72883;DHT22;61017;37.812;-122.286;2023-01-30T01:09:32;13.90;72.30
72883;DHT22;61017;37.812;-122.286;2023-01-30T01:11:03;13.90;72.20
72883;DHT22;61017;37.812;-122.286;2023-01-30T01:12:35;13.90;72.30
72883;DHT22;61017;37.812;-122.286;2023-01-30T01:14:06;13.90;72.30
72883;DHT22;61017;37.812;-122.286;2023-01-30T01:15:38;13.90;72.40
72883;DHT22;61017;37.812;-122.286;2023-01-30T01:17:10;13.90;72.30
72883;DHT22;61017;37.812;-122.286;2023-01-30T01:18:41;13.90;72.20
72883;DHT22;61017;37.812;-122.286;2023-01-30T01:20:13;13.90;72.30
72883;DHT22;61017;37.812;-122.286;2023-01-30T01:21:45;13.90;72.20
72883;DHT22;61017;37.812;-122.286;2023-01-30T01:23:16;13.90;72.20
72883;DHT22;61017;37.812;-122.286;2023-01-30T01:24:48;13.90;72.30
72883;DHT22;61017;37.812;-122.286;2023-01-30T01:26:20;13.90;72.30
72883;DHT22;61017;37.812;-122.286;2023-01-30T01:27:52;13.90;72.40
72883;DHT22;61017;37.812;-122.286;2023-01-30T01:29:24;13.90;72.30
72883;DHT22;61017;37.812;-122.286;2023-01-30T01:30:56;13.90;72.50
72883;DHT22;61017;37.812;-122.286;2023-01-30T01:32:28;13.90;72.40
72883;DHT22;61017;37.812;-122.286;2023-01-30T01:34:00;13.90;72.50
72883;DHT22;61017;37.812;-122.286;2023-01-30T01:35:31;14.00;72.50
72883;DHT22;61017;37.812;-122.286;2023-01-30T01:37:03;14.00;72.60
72883;DHT22;61017;37.812;-122.286;2023-01-30T01:38:34;14.00;72.50
72883;DHT22;61017;37.812;-122.286;2023-01-30T01:40:07;14.00;72.50
72883;DHT22;61017;37.812;-122.286;2023-01-30T01:41:38;14.00;72.50
72883;DHT22;61017;37.812;-122.286;2023-01-30T01:43:21;14.00;72.60
72883;DHT22;61017;37.812;-122.286;2023-01-30T01:45:02;14.00;72.50
72883;DHT22;61017;37.812;-122.286;2023-01-30T01:48:20;14.00;72.60
72883;DHT22;61017;37.812;-122.286;2023-01-30T01:49:52;14.00;72.70
72883;DHT22;61017;37.812;-122.286;2023-01-30T01:51:34;14.00;72.70
72883;DHT22;61017;37.812;-122.286;2023-01-30T01:53:07;14.00;72.70
72883;DHT22;61017;37.812;-122.286;2023-01-30T01:55:00;14.00;72.80
72883;DHT22;61017;37.812;-122.286;2023-01-30T01:56:34;14.00;72.60
72883;DHT22;61017;37.812;-122.286;2023-01-30T01:58:12;14.00;72.60
72883;DHT22;61017;37.812;-122.286;2023-01-30T01:59:50;14.00;72.50
72883;DHT22;61017;37.812;-122.286;2023-01-30T02:01:23;14.00;72.60
72883;DHT22;61017;37.812;-122.286;2023-01-30T02:03:00;14.00;72.60
72883;DHT22;61017;37.812;-122.286;2023-01-30T02:04:33;14.00;72.80
72883;DHT22;61017;37.812;-122.286;2023-01-30T02:06:06;14.00;72.90
72883;DHT22;61017;37.812;-122.286;2023-01-30T02:07:46;14.00;72.90
72883;DHT22;61017;37.812;-122.286;2023-01-30T02:09:20;14.00;72.60
72883;DHT22;61017;37.812;-122.286;2023-01-30T02:12:40;14.00;72.60
72883;DHT22;61017;37.812;-122.286;2023-01-30T02:14:11;14.00;72.50
72883;DHT22;61017;37.812;-122.286;2023-01-30T02:15:44;14.00;72.60
72883;DHT22;61017;37.812;-122.286;2023-01-30T02:17:16;14.00;72.40
72883;DHT22;61017;37.812;-122.286;2023-01-30T02:18:48;14.00;72.30
72883;DHT22;61017;37.812;-122.286;2023-01-30T02:20:45;14.00;72.20
72883;DHT22;61017;37.812;-122.286;2023-01-30T02:24:42;14.00;72.20
72883;DHT22;61017;37.812;-122.286;2023-01-30T02:30:21;14.00;71.90
72883;DHT22;61017;37.812;-122.286;2023-01-30T02:35:30;14.00;72.00
72883;DHT22;61017;37.812;-122.286;2023-01-30T02:40:24;13.90;71.80
72883;DHT22;61017;37.812;-122.286;2023-01-30T02:42:33;14.00;71.80
72883;DHT22;61017;37.812;-122.286;2023-01-30T02:44:26;14.00;71.70
72883;DHT22;61017;37.812;-122.286;2023-01-30T02:46:10;13.90;71.70
72883;DHT22;61017;37.812;-122.286;2023-01-30T02:48:03;14.00;71.60
72883;DHT22;61017;37.812;-122.286;2023-01-30T02:51:28;14.00;71.90
72883;DHT22;61017;37.812;-122.286;2023-01-30T02:53:03;14.00;71.80
72883;DHT22;61017;37.812;-122.286;2023-01-30T02:54:35;13.90;71.70
72883;DHT22;61017;37.812;-122.286;2023-01-30T02:56:06;14.00;71.90
72883;DHT22;61017;37.812;-122.286;2023-01-30T02:57:38;14.00;71.60
72883;DHT22;61017;37.812;-122.286;2023-01-30T02:59:09;14.00;71.60
72883;DHT22;61017;37.812;-122.286;2023-01-30T03:04:41;13.90;71.10
72883;DHT22;61017;37.812;-122.286;2023-01-30T03:07:33;13.90;71.20
72883;DHT22;61017;37.812;-122.286;2023-01-30T03:08:39;13.90;71.10
72883;DHT22;61017;37.812;-122.286;2023-01-30T03:12:48;13.90;71.50
72883;DHT22;61017;37.812;-122.286;2023-01-30T03:14:31;13.90;71.30
72883;DHT22;61017;37.812;-122.286;2023-01-30T03:16:12;13.90;71.40
72883;DHT22;61017;37.812;-122.286;2023-01-30T03:17:46;13.90;71.40
72883;DHT22;61017;37.812;-122.286;2023-01-30T03:19:18;13.90;71.70
72883;DHT22;61017;37.812;-122.286;2023-01-30T03:20:50;13.90;71.50
72883;DHT22;61017;37.812;-122.286;2023-01-30T03:22:22;13.90;71.80
72883;DHT22;61017;37.812;-122.286;2023-01-30T03:23:54;13.90;72.00
72883;DHT22;61017;37.812;-122.286;2023-01-30T03:25:25;13.90;71.90
72883;DHT22;61017;37.812;-122.286;2023-01-30T03:27:09;13.90;71.70
72883;DHT22;61017;37.812;-122.286;2023-01-30T03:28:41;13.90;72.80
72883;DHT22;61017;37.812;-122.286;2023-01-30T03:30:13;13.90;71.80
72883;DHT22;61017;37.812;-122.286;2023-01-30T03:31:45;13.90;71.50
72883;DHT22;61017;37.812;-122.286;2023-01-30T03:33:16;13.90;71.30
72883;DHT22;61017;37.812;-122.286;2023-01-30T03:34:48;13.90;71.30
72883;DHT22;61017;37.812;-122.286;2023-01-30T03:36:20;13.90;71.50
72883;DHT22;61017;37.812;-122.286;2023-01-30T03:37:51;14.00;72.10
72883;DHT22;61017;37.812;-122.286;2023-01-30T03:39:24;14.00;72.30
72883;DHT22;61017;37.812;-122.286;2023-01-30T03:40:56;14.00;72.80
72883;DHT22;61017;37.812;-122.286;2023-01-30T03:42:27;14.00;72.80
72883;DHT22;61017;37.812;-122.286;2023-01-30T03:43:59;14.00;72.90
72883;DHT22;61017;37.812;-122.286;2023-01-30T03:45:31;14.00;72.80
72883;DHT22;61017;37.812;-122.286;2023-01-30T03:47:02;14.00;72.90
72883;DHT22;61017;37.812;-122.286;2023-01-30T03:48:34;14.00;72.90
72883;DHT22;61017;37.812;-122.286;2023-01-30T03:50:06;14.00;72.90
72883;DHT22;61017;37.812;-122.286;2023-01-30T03:51:37;14.00;73.00
72883;DHT22;61017;37.812;-122.286;2023-01-30T03:53:09;14.00;73.00
72883;DHT22;61017;37.812;-122.286;2023-01-30T03:54:41;14.00;73.10
72883;DHT22;61017;37.812;-122.286;2023-01-30T03:56:12;14.00;73.10
72883;DHT22;61017;37.812;-122.286;2023-01-30T03:57:44;14.00;73.10
72883;DHT22;61017;37.812;-122.286;2023-01-30T03:59:15;14.00;73.10
72883;DHT22;61017;37.812;-122.286;2023-01-30T04:00:47;14.00;73.10
72883;DHT22;61017;37.812;-122.286;2023-01-30T04:02:18;14.00;73.10
72883;DHT22;61017;37.812;-122.286;2023-01-30T04:03:50;14.00;73.20
72883;DHT22;61017;37.812;-122.286;2023-01-30T04:05:22;14.00;73.10
72883;DHT22;61017;37.812;-122.286;2023-01-30T04:06:54;14.00;73.10
72883;DHT22;61017;37.812;-122.286;2023-01-30T04:08:25;14.00;73.00
72883;DHT22;61017;37.812;-122.286;2023-01-30T04:09:57;14.00;73.20
72883;DHT22;61017;37.812;-122.286;2023-01-30T04:11:28;14.00;73.20
72883;DHT22;61017;37.812;-122.286;2023-01-30T04:13:00;14.00;73.40
72883;DHT22;61017;37.812;-122.286;2023-01-30T04:14:31;14.00;73.30
72883;DHT22;61017;37.812;-122.286;2023-01-30T04:16:19;14.00;73.20
72883;DHT22;61017;37.812;-122.286;2023-01-30T04:17:51;14.00;73.30
72883;DHT22;61017;37.812;-122.286;2023-01-30T04:19:23;14.00;73.30
72883;DHT22;61017;37.812;-122.286;2023-01-30T04:20:54;14.00;73.30
72883;DHT22;61017;37.812;-122.286;2023-01-30T04:22:26;14.00;73.40
72883;DHT22;61017;37.812;-122.286;2023-01-30T04:23:57;14.00;73.30
72883;DHT22;61017;37.812;-122.286;2023-01-30T04:25:29;14.00;73.40
72883;DHT22;61017;37.812;-122.286;2023-01-30T04:27:00;14.00;73.40
72883;DHT22;61017;37.812;-122.286;2023-01-30T04:28:32;14.00;73.40
72883;DHT22;61017;37.812;-122.286;2023-01-30T04:30:04;14.00;73.20
72883;DHT22;61017;37.812;-122.286;2023-01-30T04:31:36;14.00;73.30
72883;DHT22;61017;37.812;-122.286;2023-01-30T04:33:08;14.00;73.40
72883;DHT22;61017;37.812;-122.286;2023-01-30T04:34:39;14.00;72.90
72883;DHT22;61017;37.812;-122.286;2023-01-30T04:36:11;14.00;72.90
72883;DHT22;61017;37.812;-122.286;2023-01-30T04:37:42;14.00;72.90
72883;DHT22;61017;37.812;-122.286;2023-01-30T04:39:14;14.00;72.80
72883;DHT22;61017;37.812;-122.286;2023-01-30T04:40:52;14.00;72.30
72883;DHT22;61017;37.812;-122.286;2023-01-30T04:42:24;14.00;72.30
72883;DHT22;61017;37.812;-122.286;2023-01-30T04:43:56;14.00;72.10
72883;DHT22;61017;37.812;-122.286;2023-01-30T04:45:27;14.00;71.60
72883;DHT22;61017;37.812;-122.286;2023-01-30T04:46:59;14.00;71.90
72883;DHT22;61017;37.812;-122.286;2023-01-30T04:48:30;14.00;72.00
72883;DHT22;61017;37.812;-122.286;2023-01-30T04:50:02;14.00;71.80
72883;DHT22;61017;37.812;-122.286;2023-01-30T04:51:34;14.00;72.20
72883;DHT22;61017;37.812;-122.286;2023-01-30T04:53:05;14.00;72.70
72883;DHT22;61017;37.812;-122.286;2023-01-30T04:54:37;14.00;72.50
72883;DHT22;61017;37.812;-122.286;2023-01-30T04:56:09;14.00;72.80
72883;DHT22;61017;37.812;-122.286;2023-01-30T04:57:40;14.00;73.50
72883;DHT22;61017;37.812;-122.286;2023-01-30T04:59:12;14.00;72.70
72883;DHT22;61017;37.812;-122.286;2023-01-30T05:00:44;14.00;72.60
72883;DHT22;61017;37.812;-122.286;2023-01-30T05:02:16;14.00;72.70
72883;DHT22;61017;37.812;-122.286;2023-01-30T05:03:51;14.00;72.70
72883;DHT22;61017;37.812;-122.286;2023-01-30T05:05:24;14.00;72.70
72883;DHT22;61017;37.812;-122.286;2023-01-30T05:06:56;14.00;72.80
72883;DHT22;61017;37.812;-122.286;2023-01-30T05:08:27;14.00;72.70
72883;DHT22;61017;37.812;-122.286;2023-01-30T05:09:59;14.00;72.50
72883;DHT22;61017;37.812;-122.286;2023-01-30T05:11:31;14.00;72.50
72883;DHT22;61017;37.812;-122.286;2023-01-30T05:13:04;14.00;72.50
72883;DHT22;61017;37.812;-122.286;2023-01-30T05:14:35;14.00;72.40
72883;DHT22;61017;37.812;-122.286;2023-01-30T05:16:07;14.00;72.50
72883;DHT22;61017;37.812;-122.286;2023-01-30T05:17:38;14.00;72.20
72883;DHT22;61017;37.812;-122.286;2023-01-30T05:19:12;14.00;72.50
72883;DHT22;61017;37.812;-122.286;2023-01-30T05:20:43;14.00;72.30
72883;DHT22;61017;37.812;-122.286;2023-01-30T05:22:15;14.00;72.00
72883;DHT22;61017;37.812;-122.286;2023-01-30T05:23:47;14.00;72.00
72883;DHT22;61017;37.812;-122.286;2023-01-30T05:25:18;14.00;72.00
72883;DHT22;61017;37.812;-122.286;2023-01-30T05:26:50;14.00;72.10
72883;DHT22;61017;37.812;-122.286;2023-01-30T05:28:22;14.00;71.80
72883;DHT22;61017;37.812;-122.286;2023-01-30T05:29:53;14.00;71.80
72883;DHT22;61017;37.812;-122.286;2023-01-30T05:31:25;14.00;71.70
72883;DHT22;61017;37.812;-122.286;2023-01-30T05:32:57;14.00;72.50
72883;DHT22;61017;37.812;-122.286;2023-01-30T05:34:29;14.00;72.00
72883;DHT22;61017;37.812;-122.286;2023-01-30T05:36:01;14.00;72.10
72883;DHT22;61017;37.812;-122.286;2023-01-30T05:37:32;14.00;72.50
72883;DHT22;61017;37.812;-122.286;2023-01-30T05:39:04;14.00;72.20
72883;DHT22;61017;37.812;-122.286;2023-01-30T05:40:36;14.00;72.20
72883;DHT22;61017;37.812;-122.286;2023-01-30T05:42:07;14.00;72.00
72883;DHT22;61017;37.812;-122.286;2023-01-30T05:43:39;14.00;71.80
72883;DHT22;61017;37.812;-122.286;2023-01-30T05:45:10;14.00;71.30
72883;DHT22;61017;37.812;-122.286;2023-01-30T05:46:42;14.00;71.20
72883;DHT22;61017;37.812;-122.286;2023-01-30T05:48:14;14.00;70.90
72883;DHT22;61017;37.812;-122.286;2023-01-30T05:49:45;14.00;71.00
72883;DHT22;61017;37.812;-122.286;2023-01-30T05:51:37;14.00;71.00
72883;DHT22;61017;37.812;-122.286;2023-01-30T05:53:08;14.00;71.00
72883;DHT22;61017;37.812;-122.286;2023-01-30T05:54:40;14.00;71.40
72883;DHT22;61017;37.812;-122.286;2023-01-30T05:56:11;14.00;71.60
72883;DHT22;61017;37.812;-122.286;2023-01-30T05:57:43;14.00;71.60
72883;DHT22;61017;37.812;-122.286;2023-01-30T05:59:15;14.00;71.50
72883;DHT22;61017;37.812;-122.286;2023-01-30T06:00:47;14.00;71.40
72883;DHT22;61017;37.812;-122.286;2023-01-30T06:02:18;14.00;71.20
72883;DHT22;61017;37.812;-122.286;2023-01-30T06:03:50;13.90;70.80
72883;DHT22;61017;37.812;-122.286;2023-01-30T06:05:22;14.00;70.80
72883;DHT22;61017;37.812;-122.286;2023-01-30T06:06:54;13.90;70.20
72883;DHT22;61017;37.812;-122.286;2023-01-30T06:08:25;13.90;69.40
72883;DHT22;61017;37.812;-122.286;2023-01-30T06:09:57;13.90;69.30
72883;DHT22;61017;37.812;-122.286;2023-01-30T06:11:28;13.90;69.20
72883;DHT22;61017;37.812;-122.286;2023-01-30T06:13:00;13.90;68.90
72883;DHT22;61017;37.812;-122.286;2023-01-30T06:14:31;13.90;68.40
72883;DHT22;61017;37.812;-122.286;2023-01-30T06:16:04;13.90;68.40
72883;DHT22;61017;37.812;-122.286;2023-01-30T06:17:36;13.90;68.00
72883;DHT22;61017;37.812;-122.286;2023-01-30T06:19:08;13.90;68.00
72883;DHT22;61017;37.812;-122.286;2023-01-30T06:20:39;13.90;67.90
72883;DHT22;61017;37.812;-122.286;2023-01-30T06:22:11;13.90;67.90
72883;DHT22;61017;37.812;-122.286;2023-01-30T06:23:43;13.90;68.20
72883;DHT22;61017;37.812;-122.286;2023-01-30T06:25:14;13.90;67.90
72883;DHT22;61017;37.812;-122.286;2023-01-30T06:26:46;13.90;68.10
72883;DHT22;61017;37.812;-122.286;2023-01-30T06:28:19;13.90;67.50
72883;DHT22;61017;37.812;-122.286;2023-01-30T06:29:50;13.90;67.00
72883;DHT22;61017;37.812;-122.286;2023-01-30T06:31:22;13.90;65.80
72883;DHT22;61017;37.812;-122.286;2023-01-30T06:32:53;13.90;66.40
72883;DHT22;61017;37.812;-122.286;2023-01-30T06:34:25;13.90;66.50
72883;DHT22;61017;37.812;-122.286;2023-01-30T06:35:56;13.90;65.90
72883;DHT22;61017;37.812;-122.286;2023-01-30T06:37:28;13.90;65.70
72883;DHT22;61017;37.812;-122.286;2023-01-30T06:38:59;13.90;65.60
72883;DHT22;61017;37.812;-122.286;2023-01-30T06:40:31;13.90;65.20
72883;DHT22;61017;37.812;-122.286;2023-01-30T06:42:03;13.90;65.40
72883;DHT22;61017;37.812;-122.286;2023-01-30T06:43:34;13.90;65.00
72883;DHT22;61017;37.812;-122.286;2023-01-30T06:45:06;13.90;64.10
72883;DHT22;61017;37.812;-122.286;2023-01-30T06:46:38;13.90;64.70
72883;DHT22;61017;37.812;-122.286;2023-01-30T06:48:09;13.90;64.00
72883;DHT22;61017;37.812;-122.286;2023-01-30T06:49:41;13.90;63.60
72883;DHT22;61017;37.812;-122.286;2023-01-30T06:51:13;13.90;63.60
72883;DHT22;61017;37.812;-122.286;2023-01-30T06:52:46;13.90;63.60
72883;DHT22;61017;37.812;-122.286;2023-01-30T06:54:18;13.90;63.40
72883;DHT22;61017;37.812;-122.286;2023-01-30T06:55:49;13.90;63.20
72883;DHT22;61017;37.812;-122.286;2023-01-30T06:57:21;13.90;62.40
72883;DHT22;61017;37.812;-122.286;2023-01-30T06:58:52;13.90;63.10
72883;DHT22;61017;37.812;-122.286;2023-01-30T07:00:24;13.90;62.50
72883;DHT22;61017;37.812;-122.286;2023-01-30T07:01:56;13.80;62.80
72883;DHT22;61017;37.812;-122.286;2023-01-30T07:03:27;13.80;62.50
72883;DHT22;61017;37.812;-122.286;2023-01-30T07:04:59;13.80;62.20
72883;DHT22;61017;37.812;-122.286;2023-01-30T07:06:30;13.90;62.50
72883;DHT22;61017;37.812;-122.286;2023-01-30T07:08:02;13.80;62.10
72883;DHT22;61017;37.812;-122.286;2023-01-30T07:09:33;13.80;62.50
72883;DHT22;61017;37.812;-122.286;2023-01-30T07:11:05;13.80;62.00
72883;DHT22;61017;37.812;-122.286;2023-01-30T07:12:37;13.80;61.70
72883;DHT22;61017;37.812;-122.286;2023-01-30T07:14:08;13.80;61.10
72883;DHT22;61017;37.812;-122.286;2023-01-30T07:15:40;13.80;61.10
72883;DHT22;61017;37.812;-122.286;2023-01-30T07:17:12;13.80;60.90
72883;DHT22;61017;37.812;-122.286;2023-01-30T07:18:44;13.80;61.10
72883;DHT22;61017;37.812;-122.286;2023-01-30T07:20:15;13.80;60.00
72883;DHT22;61017;37.812;-122.286;2023-01-30T07:21:47;13.80;60.90
72883;DHT22;61017;37.812;-122.286;2023-01-30T07:23:18;13.80;60.70
72883;DHT22;61017;37.812;-122.286;2023-01-30T07:24:50;13.80;60.80
72883;DHT22;61017;37.812;-122.286;2023-01-30T07:26:21;13.80;60.70
72883;DHT22;61017;37.812;-122.286;2023-01-30T07:27:56;13.80;60.90
72883;DHT22;61017;37.812;-122.286;2023-01-30T07:29:27;13.80;59.90
72883;DHT22;61017;37.812;-122.286;2023-01-30T07:30:59;13.80;59.70
72883;DHT22;61017;37.812;-122.286;2023-01-30T07:32:31;13.80;59.40
72883;DHT22;61017;37.812;-122.286;2023-01-30T07:34:02;13.80;60.30
72883;DHT22;61017;37.812;-122.286;2023-01-30T07:35:36;13.80;60.10
72883;DHT22;61017;37.812;-122.286;2023-01-30T07:37:07;13.80;60.00
72883;DHT22;61017;37.812;-122.286;2023-01-30T07:38:39;13.80;59.70
72883;DHT22;61017;37.812;-122.286;2023-01-30T07:40:11;13.80;59.40
72883;DHT22;61017;37.812;-122.286;2023-01-30T07:41:43;13.80;59.80
72883;DHT22;61017;37.812;-122.286;2023-01-30T07:43:14;13.80;59.40
72883;DHT22;61017;37.812;-122.286;2023-01-30T07:44:46;13.80;59.50
72883;DHT22;61017;37.812;-122.286;2023-01-30T07:46:17;13.80;59.50
72883;DHT22;61017;37.812;-122.286;2023-01-30T07:47:49;13.80;59.90
72883;DHT22;61017;37.812;-122.286;2023-01-30T07:49:20;13.80;61.00
72883;DHT22;61017;37.812;-122.286;2023-01-30T07:50:54;13.70;60.60
72883;DHT22;61017;37.812;-122.286;2023-01-30T07:52:26;13.80;61.50
72883;DHT22;61017;37.812;-122.286;2023-01-30T07:53:57;13.80;61.80
72883;DHT22;61017;37.812;-122.286;2023-01-30T07:55:29;13.70;61.10
72883;DHT22;61017;37.812;-122.286;2023-01-30T07:57:01;13.70;60.30
72883;DHT22;61017;37.812;-122.286;2023-01-30T07:58:32;13.70;60.50
72883;DHT22;61017;37.812;-122.286;2023-01-30T08:00:24;13.70;60.40
72883;DHT22;61017;37.812;-122.286;2023-01-30T08:01:56;13.70;60.60
72883;DHT22;61017;37.812;-122.286;2023-01-30T08:03:27;13.70;61.80
72883;DHT22;61017;37.812;-122.286;2023-01-30T08:04:59;13.70;62.20
72883;DHT22;61017;37.812;-122.286;2023-01-30T08:06:31;13.70;62.00
72883;DHT22;61017;37.812;-122.286;2023-01-30T08:08:02;13.80;62.00
72883;DHT22;61017;37.812;-122.286;2023-01-30T08:09:34;13.80;62.60
72883;DHT22;61017;37.812;-122.286;2023-01-30T08:11:05;13.70;62.90
72883;DHT22;61017;37.812;-122.286;2023-01-30T08:12:38;13.70;62.80
72883;DHT22;61017;37.812;-122.286;2023-01-30T08:14:10;13.80;62.70
72883;DHT22;61017;37.812;-122.286;2023-01-30T08:15:41;13.70;61.50
72883;DHT22;61017;37.812;-122.286;2023-01-30T08:17:13;13.70;61.70
72883;DHT22;61017;37.812;-122.286;2023-01-30T08:18:44;13.70;61.10
72883;DHT22;61017;37.812;-122.286;2023-01-30T08:20:16;13.70;61.10
72883;DHT22;61017;37.812;-122.286;2023-01-30T08:21:47;13.70;60.50
72883;DHT22;61017;37.812;-122.286;2023-01-30T08:23:19;13.70;59.80
72883;DHT22;61017;37.812;-122.286;2023-01-30T08:24:50;13.70;59.50
72883;DHT22;61017;37.812;-122.286;2023-01-30T08:26:22;13.70;59.40
72883;DHT22;61017;37.812;-122.286;2023-01-30T08:27:54;13.70;58.70
72883;DHT22;61017;37.812;-122.286;2023-01-30T08:29:26;13.70;58.60
72883;DHT22;61017;37.812;-122.286;2023-01-30T08:30:57;13.70;58.30
72883;DHT22;61017;37.812;-122.286;2023-01-30T08:32:29;13.70;58.30
72883;DHT22;61017;37.812;-122.286;2023-01-30T08:34:00;13.70;58.50
72883;DHT22;61017;37.812;-122.286;2023-01-30T08:35:32;13.70;58.20
72883;DHT22;61017;37.812;-122.286;2023-01-30T08:37:03;13.70;57.70
72883;DHT22;61017;37.812;-122.286;2023-01-30T08:38:35;13.70;57.50
72883;DHT22;61017;37.812;-122.286;2023-01-30T08:40:07;13.70;57.10
72883;DHT22;61017;37.812;-122.286;2023-01-30T08:41:39;13.70;57.60
72883;DHT22;61017;37.812;-122.286;2023-01-30T08:43:10;13.70;57.70
72883;DHT22;61017;37.812;-122.286;2023-01-30T08:44:42;13.70;57.00
72883;DHT22;61017;37.812;-122.286;2023-01-30T08:46:13;13.70;57.00
72883;DHT22;61017;37.812;-122.286;2023-01-30T08:47:45;13.60;57.30
72883;DHT22;61017;37.812;-122.286;2023-01-30T08:49:16;13.60;56.60
72883;DHT22;61017;37.812;-122.286;2023-01-30T08:50:57;13.60;57.40
72883;DHT22;61017;37.812;-122.286;2023-01-30T08:52:28;13.60;56.20
72883;DHT22;61017;37.812;-122.286;2023-01-30T08:54:00;13.60;56.00
72883;DHT22;61017;37.812;-122.286;2023-01-30T08:55:31;13.60;56.40
72883;DHT22;61017;37.812;-122.286;2023-01-30T08:57:03;13.60;56.40
72883;DHT22;61017;37.812;-122.286;2023-01-30T08:58:35;13.60;55.80
72883;DHT22;61017;37.812;-122.286;2023-01-30T09:00:08;13.60;56.10
72883;DHT22;61017;37.812;-122.286;2023-01-30T09:01:39;13.60;56.30
72883;DHT22;61017;37.812;-122.286;2023-01-30T09:03:12;13.60;56.00
72883;DHT22;61017;37.812;-122.286;2023-01-30T09:04:44;13.60;56.10
72883;DHT22;61017;37.812;-122.286;2023-01-30T09:06:15;13.60;55.00
72883;DHT22;61017;37.812;-122.286;2023-01-30T09:07:47;13.60;55.50
72883;DHT22;61017;37.812;-122.286;2023-01-30T09:09:18;13.60;55.40
72883;DHT22;61017;37.812;-122.286;2023-01-30T09:10:50;13.60;54.80
72883;DHT22;61017;37.812;-122.286;2023-01-30T09:12:22;13.60;54.60
72883;DHT22;61017;37.812;-122.286;2023-01-30T09:13:53;13.60;54.20
72883;DHT22;61017;37.812;-122.286;2023-01-30T09:15:25;13.60;54.10
72883;DHT22;61017;37.812;-122.286;2023-01-30T09:16:57;13.50;54.30
72883;DHT22;61017;37.812;-122.286;2023-01-30T09:18:28;13.50;54.60
72883;DHT22;61017;37.812;-122.286;2023-01-30T09:20:00;13.50;53.60
72883;DHT22;61017;37.812;-122.286;2023-01-30T09:21:31;13.50;53.80
72883;DHT22;61017;37.812;-122.286;2023-01-30T09:23:03;13.60;53.80
72883;DHT22;61017;37.812;-122.286;2023-01-30T09:24:34;13.50;53.60
72883;DHT22;61017;37.812;-122.286;2023-01-30T09:26:06;13.60;53.20
72883;DHT22;61017;37.812;-122.286;2023-01-30T09:27:38;13.50;52.60
72883;DHT22;61017;37.812;-122.286;2023-01-30T09:29:13;13.50;52.70
72883;DHT22;61017;37.812;-122.286;2023-01-30T09:30:45;13.50;52.10
72883;DHT22;61017;37.812;-122.286;2023-01-30T09:32:17;13.50;51.70
72883;DHT22;61017;37.812;-122.286;2023-01-30T09:33:48;13.50;51.50
72883;DHT22;61017;37.812;-122.286;2023-01-30T09:35:20;13.50;51.40
72883;DHT22;61017;37.812;-122.286;2023-01-30T09:36:52;13.50;51.00
72883;DHT22;61017;37.812;-122.286;2023-01-30T09:38:23;13.40;50.90
72883;DHT22;61017;37.812;-122.286;2023-01-30T09:39:55;13.50;50.70
72883;DHT22;61017;37.812;-122.286;2023-01-30T09:43:23;13.40;50.70
72883;DHT22;61017;37.812;-122.286;2023-01-30T09:49:00;13.40;50.10
72883;DHT22;61017;37.812;-122.286;2023-01-30T09:54:33;13.40;50.40